createdAt,value
2022-11-16T00:02:13.586Z,99742.25
2022-11-16T00:04:41.601Z,99751.09
2022-11-16T00:07:09.570Z,99750.09
2022-11-16T00:09:37.663Z,99741.16
2022-11-16T00:12:08.757Z,99739.31
2022-11-16T00:14:36.676Z,99747.31
2022-11-16T00:17:04.768Z,99749.13
2022-11-16T00:19:32.382Z,99741.16
2022-11-16T00:22:00.082Z,99729.66
2022-11-16T00:24:27.446Z,99745.63
2022-11-16T00:26:56.095Z,99738.59
2022-11-16T00:29:26.444Z,99756.28
2022-11-16T00:31:54.858Z,99748.41
2022-11-16T00:34:24.428Z,99748.41
2022-11-16T00:36:52.571Z,99735.22
2022-11-16T00:39:20.827Z,99736.06
2022-11-16T00:41:50.050Z,99744.03
2022-11-16T00:44:18.810Z,99737.88
2022-11-16T00:46:46.187Z,99742.09
2022-11-16T00:49:13.588Z,99739.44
2022-11-16T00:51:41.224Z,99729.66
2022-11-16T00:54:09.921Z,99734.84
2022-11-16T00:56:39.466Z,99735.72
2022-11-16T00:59:07.735Z,99743.56
2022-11-16T01:01:35.419Z,99737.25
2022-11-16T01:04:03.122Z,99745.00
2022-11-16T01:06:30.530Z,99744.88
2022-11-16T01:08:58.094Z,99746.44
2022-11-16T01:11:44.175Z,99745.38
2022-11-16T01:14:12.008Z,99755.03
2022-11-16T01:16:39.405Z,99754.09
2022-11-16T01:19:07.792Z,99753.94
2022-11-16T01:21:35.479Z,99748.63
2022-11-16T01:24:04.093Z,99740.63
2022-11-16T01:26:31.514Z,99729.00
2022-11-16T01:28:59.778Z,99728.16
2022-11-16T01:31:31.090Z,99718.34
2022-11-16T01:33:59.911Z,99726.47
2022-11-16T01:36:29.768Z,99730.84
2022-11-16T01:38:59.609Z,99719.19
2022-11-16T01:41:30.918Z,99720.16
2022-11-16T01:44:06.895Z,99717.34
2022-11-16T01:46:49.036Z,99713.00
2022-11-16T01:49:23.912Z,99708.53
2022-11-16T01:52:02.957Z,99704.91
2022-11-16T01:54:41.646Z,99699.56
2022-11-16T01:57:16.114Z,99689.75
2022-11-16T01:59:57.714Z,99698.59
2022-11-16T02:02:28.267Z,99695.91
2022-11-16T02:04:58.236Z,99687.81
2022-11-16T02:08:23.345Z,99684.16
2022-11-16T02:10:54.242Z,99689.47
2022-11-16T02:14:16.589Z,99680.41
2022-11-16T02:17:10.916Z,99681.25
2022-11-16T02:20:00.429Z,99682.94
2022-11-16T02:23:21.221Z,99677.59
2022-11-16T02:26:24.817Z,99672.28
2022-11-16T02:29:20.775Z,99669.59
2022-11-16T02:32:09.001Z,99669.75
2022-11-16T02:34:52.953Z,99670.59
2022-11-16T02:37:26.277Z,99673.25
2022-11-16T02:39:59.665Z,99670.47
2022-11-16T02:42:38.892Z,99667.81
2022-11-16T02:45:12.224Z,99657.97
2022-11-16T02:47:44.654Z,99667.81
2022-11-16T02:50:19.588Z,99666.81
2022-11-16T02:52:47.402Z,99660.66
2022-11-16T02:55:15.178Z,99660.66
2022-11-16T02:57:51.217Z,99662.31
2022-11-16T03:00:51.972Z,99661.50
2022-11-16T03:03:37.791Z,99661.50
2022-11-16T03:06:19.152Z,99664.16
2022-11-16T03:09:21.320Z,99670.31
2022-11-16T03:12:00.827Z,99662.31
2022-11-16T03:14:47.682Z,99665.00
2022-11-16T03:17:29.773Z,99661.25
2022-11-16T03:20:27.128Z,99665.72
2022-11-16T03:23:01.638Z,99670.31
2022-11-16T03:25:37.067Z,99679.31
2022-11-16T03:28:38.390Z,99660.66
2022-11-16T03:31:21.796Z,99653.75
2022-11-16T03:33:57.702Z,99666.22
2022-11-16T03:36:33.783Z,99668.88
2022-11-16T03:39:37.675Z,99686.69
2022-11-16T03:42:14.390Z,99683.19
2022-11-16T03:44:47.978Z,99681.50
2022-11-16T03:47:15.636Z,99691.19
2022-11-16T03:49:47.670Z,99688.53
2022-11-16T03:52:19.012Z,99688.53
2022-11-16T03:54:48.292Z,99695.53
2022-11-16T03:57:18.656Z,99703.53
2022-11-16T03:59:52.849Z,99699.91
2022-11-16T04:02:20.309Z,99710.56
2022-11-16T04:05:08.457Z,99707.91
2022-11-16T04:07:54.452Z,99701.59
2022-11-16T04:10:41.755Z,99697.97
2022-11-16T04:13:31.717Z,99703.19
2022-11-16T04:16:18.835Z,99706.69
2022-11-16T04:19:05.470Z,99709.22
2022-11-16T04:22:01.033Z,99709.06
2022-11-16T04:24:39.317Z,99711.75
2022-11-16T04:27:31.818Z,99711.63
2022-11-16T04:30:02.511Z,99714.41
2022-11-16T04:32:52.570Z,99716.13
2022-11-16T04:35:38.758Z,99722.41
2022-11-16T04:38:08.550Z,99722.28
2022-11-16T04:40:37.153Z,99730.28
2022-11-16T04:43:06.010Z,99732.84
2022-11-16T04:45:55.268Z,99741.66
2022-11-16T04:48:26.801Z,99739.00
2022-11-16T04:50:55.376Z,99746.03
2022-11-16T04:53:27.920Z,99743.38
2022-11-16T04:56:15.234Z,99749.56
2022-11-16T04:58:43.194Z,99742.38
2022-11-16T05:01:11.121Z,99751.09
2022-11-16T05:03:38.714Z,99749.44
2022-11-16T05:06:06.920Z,99750.28
2022-11-16T05:08:35.227Z,99757.28
2022-11-16T05:11:04.754Z,99760.81
2022-11-16T05:13:33.013Z,99760.66
2022-11-16T05:16:01.805Z,99764.22
2022-11-16T05:18:29.208Z,99761.38
2022-11-16T05:21:02.703Z,99770.09
2022-11-16T05:23:56.012Z,99766.59
2022-11-16T05:26:26.205Z,99765.75
2022-11-16T05:28:54.975Z,99767.44
2022-11-16T05:31:22.382Z,99769.28
2022-11-16T05:33:50.002Z,99778.09
2022-11-16T05:36:18.834Z,99771.81
2022-11-16T05:38:46.259Z,99787.81
2022-11-16T05:41:14.760Z,99785.16
2022-11-16T05:43:43.651Z,99783.44
2022-11-16T05:46:18.714Z,99770.09
2022-11-16T05:48:46.722Z,99772.78
2022-11-16T05:51:14.276Z,99767.44
2022-11-16T05:53:42.581Z,99768.31
2022-11-16T05:56:15.051Z,99765.75
2022-11-16T05:58:44.494Z,99764.22
2022-11-16T06:01:12.260Z,99771.34
2022-11-16T06:03:39.834Z,99767.81
2022-11-16T06:06:07.299Z,99763.47
2022-11-16T06:08:36.873Z,99770.63
2022-11-16T06:11:10.175Z,99775.09
2022-11-16T06:13:38.568Z,99775.22
2022-11-16T06:16:07.591Z,99783.09
2022-11-16T06:18:42.662Z,99792.81
2022-11-16T06:21:12.549Z,99785.66
2022-11-16T06:23:41.393Z,99794.59
2022-11-16T06:26:09.880Z,99801.66
2022-11-16T06:28:38.307Z,99804.31
2022-11-16T06:31:06.259Z,99810.59
2022-11-16T06:33:38.030Z,99813.25
2022-11-16T06:36:10.127Z,99820.31
2022-11-16T18:28:11.224Z,99570.63
2022-11-16T18:30:38.881Z,99583.84
2022-11-16T18:33:08.421Z,99580.81
2022-11-16T18:35:35.766Z,99575.00
2022-11-16T18:38:03.718Z,99577.31
2022-11-16T18:40:31.232Z,99569.03
2022-11-16T18:42:58.660Z,99572.34
2022-11-16T18:45:26.090Z,99574.31
2022-11-16T18:47:53.518Z,99568.00
2022-11-16T18:50:26.540Z,99578.13
2022-11-16T18:52:54.333Z,99578.41
2022-11-16T18:55:22.946Z,99580.19
2022-11-16T18:57:50.307Z,99567.72
2022-11-16T19:00:20.250Z,99567.47
2022-11-16T19:02:47.635Z,99565.25
2022-11-16T19:05:15.038Z,99555.22
2022-11-16T19:07:42.430Z,99557.25
2022-11-16T19:10:10.065Z,99546.16
2022-11-16T19:12:37.593Z,99541.91
2022-11-16T19:15:05.671Z,99530.59
2022-11-16T19:17:33.057Z,99523.84
2022-11-16T19:20:00.431Z,99511.00
2022-11-16T19:22:27.840Z,99511.16
2022-11-16T19:24:55.229Z,99508.66
2022-11-16T19:27:22.583Z,99503.59
2022-11-16T19:29:49.942Z,99496.59
2022-11-16T19:32:17.320Z,99496.66
2022-11-16T19:34:44.705Z,99497.59
2022-11-16T19:37:12.106Z,99492.41
2022-11-16T19:39:39.586Z,99480.28
2022-11-16T19:42:07.016Z,99478.56
2022-11-16T19:44:34.447Z,99472.63
2022-11-16T19:47:01.996Z,99470.91
2022-11-16T19:49:29.561Z,99468.28
2022-11-16T19:51:56.921Z,99461.41
2022-11-16T19:54:24.345Z,99458.78
2022-11-16T19:56:55.066Z,99449.13
2022-11-16T19:59:22.950Z,99439.56
2022-11-16T20:01:50.351Z,99435.16
2022-11-16T20:04:17.694Z,99444.72
2022-11-16T20:06:45.171Z,99428.97
2022-11-16T20:09:12.977Z,99421.97
2022-11-16T20:11:41.729Z,99418.41
2022-11-16T20:14:11.831Z,99415.72
2022-11-16T20:16:42.430Z,99410.44
2022-11-16T20:19:10.734Z,99410.44
2022-11-16T20:21:41.682Z,99401.63
2022-11-16T20:24:16.074Z,99396.38
2022-11-16T20:26:47.821Z,99392.00
2022-11-16T20:29:16.936Z,99385.09
2022-11-16T20:31:46.082Z,99380.72
2022-11-16T20:34:16.790Z,99375.38
2022-11-16T20:36:46.973Z,99384.91
2022-11-16T20:39:17.328Z,99376.94
2022-11-16T20:41:45.755Z,99376.00
2022-11-16T20:44:22.163Z,99370.75
2022-11-16T20:46:52.407Z,99374.22
2022-11-16T20:49:20.301Z,99366.28
2022-11-16T20:51:48.302Z,99361.88
2022-11-16T20:54:15.762Z,99363.66
2022-11-16T20:56:44.423Z,99361.81
2022-11-16T20:59:11.837Z,99360.09
2022-11-16T21:01:41.330Z,99348.69
2022-11-16T21:04:10.759Z,99345.22
2022-11-16T21:06:38.128Z,99344.25
2022-11-16T21:09:06.087Z,99339.84
2022-11-16T21:11:53.927Z,99333.69
2022-11-16T21:14:22.599Z,99331.06
2022-11-16T21:16:50.253Z,99323.19
2022-11-16T21:19:17.673Z,99322.25
2022-11-16T21:21:45.129Z,99316.06
2022-11-16T21:24:12.565Z,99316.00
2022-11-16T21:26:40.060Z,99301.16
2022-11-16T21:29:08.501Z,99288.88
2022-11-16T21:31:36.808Z,99279.22
2022-11-16T21:34:05.751Z,99272.19
2022-11-16T21:36:33.686Z,99272.97
2022-11-16T21:39:01.133Z,99258.88
2022-11-16T21:41:28.648Z,99265.84
2022-11-16T21:43:56.074Z,99259.66
2022-11-16T21:46:26.493Z,99260.53
2022-11-16T21:48:56.463Z,99246.47
2022-11-16T21:51:26.814Z,99244.66
2022-11-16T21:53:54.828Z,99230.63
2022-11-16T21:56:25.257Z,99234.03
2022-11-16T21:58:54.035Z,99234.03
2022-11-16T22:01:23.342Z,99234.78
2022-11-16T22:04:10.839Z,99235.56
2022-11-16T22:06:56.976Z,99228.44
2022-11-16T22:09:24.412Z,99226.59
2022-11-16T22:11:51.777Z,99216.84
2022-11-16T22:14:19.157Z,99210.66
2022-11-16T22:16:46.525Z,99207.94
2022-11-16T22:19:13.973Z,99207.06
2022-11-16T22:21:41.337Z,99190.38
2022-11-16T22:24:08.741Z,99186.09
2022-11-16T22:26:37.890Z,99179.97
2022-11-16T22:29:05.298Z,99165.13
2022-11-16T22:31:32.987Z,99158.09
2022-11-16T22:34:00.336Z,99152.00
2022-11-16T22:36:27.796Z,99140.72
2022-11-16T22:38:56.989Z,99125.91
2022-11-16T22:41:24.413Z,99113.69
2022-11-16T22:43:51.840Z,99114.63
2022-11-16T22:46:19.217Z,99098.00
2022-11-16T22:48:47.834Z,99084.97
2022-11-16T22:51:23.563Z,99084.09
2022-11-16T22:54:03.400Z,99085.88
2022-11-16T22:56:33.464Z,99074.59
2022-11-16T22:59:02.378Z,99067.75
2022-11-16T23:01:29.835Z,99058.91
2022-11-16T23:03:58.688Z,99054.59
2022-11-16T23:06:26.227Z,99051.03
2022-11-16T23:08:54.291Z,99044.94
2022-11-16T23:11:43.793Z,99031.03
2022-11-16T23:14:40.673Z,99030.28
2022-11-16T23:17:08.099Z,99011.97
2022-11-16T23:19:54.293Z,99006.81
2022-11-16T23:22:40.509Z,99000.63
2022-11-16T23:25:30.302Z,98992.81
2022-11-16T23:28:14.964Z,98987.56
2022-11-16T23:30:42.749Z,98970.13
2022-11-16T23:33:10.902Z,98958.78
2022-11-16T23:35:38.402Z,98949.13
2022-11-16T23:38:07.549Z,98940.28
2022-11-16T23:40:38.759Z,98936.75
2022-11-16T23:43:28.947Z,98925.28
2022-11-16T23:45:56.384Z,98926.25
2022-11-16T23:48:23.924Z,98910.41
2022-11-16T23:50:51.343Z,98893.69
2022-11-16T23:53:18.719Z,98888.34
2022-11-16T23:55:47.510Z,98878.69
2022-11-16T23:58:15.423Z,98864.63
